This is the latest recevied weather packets stored in our database for station/object IK2CHZ-3. If no packets are shown the sender has not sent any weather packets the latest 10 day(s).
| Time | Temp. | Humidity | Pressure | Rain* | Wind** | Luminosity | Snow |
|---|---|---|---|---|---|---|---|
| 1777802449 | 22.22° C | 35% | 1018.6 hPa | 0 mm | - | - | - |
| 1777801790 | 22.22° C | 33% | 1018.7 hPa | 0 mm | - | - | - |
| 1777801130 | 22.22° C | 39% | 1018.8 hPa | 0 mm | - | - | - |
| 1777800467 | 21.67° C | 43% | 1019 hPa | 0 mm | - | - | - |
| 1777799808 | 22.22° C | 43% | 1019.1 hPa | 0 mm | - | - | - |
| 1777799163 | 21.67° C | 43% | 1019.1 hPa | 0 mm | - | - | - |
| 1777798503 | 21.11° C | 43% | 1019.1 hPa | 0 mm | - | - | - |
| 1777797843 | 21.67° C | 44% | 1019.2 hPa | 0 mm | - | - | - |
| 1777797184 | 20.56° C | 46% | 1019.2 hPa | 0 mm | - | - | - |
| 1777796523 | 20.56° C | 47% | 1019.3 hPa | 0 mm | - | - | - |
| 1777795864 | 20° C | 50% | 1019.4 hPa | 0 mm | - | - | - |
| 1777795204 | 20° C | 50% | 1019.4 hPa | 0 mm | - | - | - |
| 1777794542 | 20° C | 51% | 1019.4 hPa | 0 mm | - | - | - |
| 1777793883 | 20° C | 50% | 1019.4 hPa | 0 mm | - | - | - |
| 1777793222 | 19.44° C | 49% | 1019.5 hPa | 0 mm | - | - | - |
| 1777792563 | 19.44° C | 55% | 1019.5 hPa | 0 mm | - | - | - |
| 1777791904 | 18.33° C | 58% | 1019.6 hPa | 0 mm | - | - | - |
| 1777791244 | 17.78° C | 59% | 1019.6 hPa | 0 mm | - | - | - |
| 1777790583 | 17.22° C | 60% | 1019.6 hPa | 0 mm | - | - | - |
| 1777789924 | 16.67° C | 61% | 1019.5 hPa | 0 mm | - | - | - |
| 1777789562 | 16.67° C | 62% | 1019.5 hPa | 0 mm | - | - | - |
| 1777753924 | 20.56° C | 39% | 1020.4 hPa | 0 mm | - | - | - |
| 1777753263 | 20.56° C | 37% | 1020.4 hPa | 0 mm | - | - | - |
| 1777752604 | 21.11° C | 39% | 1020.4 hPa | 0 mm | - | - | - |
| 1777751942 | 21.67° C | 35% | 1020.4 hPa | 0 mm | - | - | - |
* Rain latest hour (hover to see other rain measurements)
** Current wind speed in m/s (hover to see current wind gust speed)